This is the latest recevied weather packets stored in our database for station/object JE4YKI-13. If no packets are shown the sender has not sent any weather packets the latest 1 day(s).
| Time | Temp. | Humidity | Pressure | Rain* | Wind** | Luminosity | Snow |
|---|---|---|---|---|---|---|---|
| 1778040654 | 21.67° C | 51% | 1017.3 hPa | 0 mm | - | - | - |
| 1778039453 | 21.11° C | 52% | 1017.5 hPa | 0 mm | - | - | - |
| 1778038853 | 20.56° C | 53% | 1017.4 hPa | 0 mm | - | - | - |
| 1778038253 | 20.56° C | 53% | 1017.7 hPa | 0 mm | - | - | - |
| 1778037652 | 20.56° C | 53% | 1018 hPa | 0 mm | - | - | - |
| 1778037052 | 20.56° C | 53% | 1017.8 hPa | 0 mm | - | - | - |
| 1778036451 | 20.56° C | 52% | 1018.3 hPa | 0 mm | - | - | - |
| 1778035851 | 21.11° C | 50% | 1018.6 hPa | 0 mm | - | - | - |
| 1778035250 | 20.56° C | 51% | 1018.5 hPa | 0 mm | - | - | - |
| 1778034650 | 20.56° C | 52% | 1018.7 hPa | 0 mm | - | - | - |
| 1778034049 | 20.56° C | 53% | 1018.8 hPa | 0 mm | - | - | - |
| 1778033448 | 19.44° C | 53% | 1018.8 hPa | 0 mm | - | - | - |
| 1778032247 | 19.44° C | 51% | 1018.9 hPa | 0 mm | - | - | - |
| 1778031647 | 20° C | 50% | 1019 hPa | 0 mm | - | - | - |
| 1778031046 | 20° C | 50% | 1019.1 hPa | 0 mm | - | - | - |
| 1778030446 | 20° C | 51% | 1019.2 hPa | 0 mm | - | - | - |
| 1778029245 | 19.44° C | 52% | 1019.3 hPa | 0 mm | - | - | - |
| 1778028645 | 19.44° C | 53% | 1019.3 hPa | 0 mm | - | - | - |
| 1778028045 | 18.89° C | 54% | 1019.3 hPa | 0 mm | - | - | - |
| 1778027444 | 18.89° C | 55% | 1019.1 hPa | 0 mm | - | - | - |
| 1778026244 | 17.22° C | 60% | 1019.3 hPa | 0 mm | - | - | - |
| 1778023241 | 16.11° C | 66% | 1019.4 hPa | 0 mm | - | - | - |
* Rain latest hour (hover to see other rain measurements)
** Current wind speed in m/s (hover to see current wind gust speed)